Time;durP1;ratioP1;P1;durP2;ratioP2;P2;SDS_P1;SDS_P2;PMS_P1;PMS_P2;Temp;Humidity;BMP_temperature;BMP_pressure;BME280_temperature;BME280_humidity;BME280_pressure;Samples;Min_cycle;Max_cycle;Signal;HPM_P1;HPM_P2
2022/02/13 00:00:09;;;;;;;17.85;9.15;;;4.30;90.80;;;;;;5071366;28;20231;-70
2022/02/13 00:02:40;;;;;;;21.17;9.15;;;4.30;91.00;;;;;;5069990;28;20186;-70
2022/02/13 00:05:07;;;;;;;16.98;9.02;;;4.30;91.00;;;;;;5069124;28;20198;-70
2022/02/13 00:07:33;;;;;;;16.70;8.63;;;4.20;91.10;;;;;;5052229;28;20559;-71
2022/02/13 00:10:00;;;;;;;18.80;8.63;;;4.20;91.10;;;;;;5071134;28;20190;-69
2022/02/13 00:12:25;;;;;;;17.27;8.70;;;4.20;91.30;;;;;;5070101;28;20239;-70
2022/02/13 00:14:55;;;;;;;18.77;8.45;;;4.20;91.60;;;;;;5070501;28;20206;-70
2022/02/13 00:17:22;;;;;;;15.95;8.05;;;4.20;91.50;;;;;;5068589;28;20233;-69
2022/02/13 00:19:47;;;;;;;19.40;8.82;;;4.20;91.70;;;;;;5069715;28;20242;-70
2022/02/13 00:22:13;;;;;;;17.33;9.25;;;4.20;91.80;;;;;;5052362;28;21058;-69
2022/02/13 00:24:39;;;;;;;21.85;9.68;;;4.10;91.80;;;;;;5070594;28;20270;-70
2022/02/13 00:27:05;;;;;;;17.17;8.77;;;4.10;92.00;;;;;;5068427;28;20265;-71
2022/02/13 00:29:31;;;;;;;16.13;8.63;;;4.10;92.30;;;;;;5053873;28;20599;-70
2022/02/13 00:31:56;;;;;;;18.35;9.18;;;4.10;92.20;;;;;;5070443;28;20266;-69
2022/02/13 00:34:22;;;;;;;20.25;9.35;;;4.10;92.00;;;;;;5067607;28;20202;-68
2022/02/13 00:36:47;;;;;;;16.05;8.50;;;4.10;92.10;;;;;;5070014;28;20244;-69
2022/02/13 00:39:14;;;;;;;17.15;8.68;;;4.10;92.30;;;;;;5069659;28;20364;-70
2022/02/13 00:41:40;;;;;;;22.88;9.73;;;4.10;92.30;;;;;;5070532;28;20179;-69
2022/02/13 00:44:07;;;;;;;18.90;10.23;;;4.10;92.30;;;;;;5069303;28;20183;-69
2022/02/13 00:46:32;;;;;;;17.20;9.25;;;4.10;92.50;;;;;;5069317;28;20183;-69
2022/02/13 00:48:59;;;;;;;19.95;9.82;;;4.10;92.60;;;;;;5069527;28;20186;-70
2022/02/13 00:51:25;;;;;;;21.30;9.05;;;4.10;92.70;;;;;;5069918;28;20186;-69
2022/02/13 00:53:51;;;;;;;21.02;9.50;;;4.10;92.70;;;;;;5069385;28;20738;-69
2022/02/13 00:56:16;;;;;;;17.25;8.90;;;4.10;92.80;;;;;;5070354;28;20298;-69
2022/02/13 00:58:44;;;;;;;27.10;9.73;;;4.20;93.10;;;;;;5051103;28;20201;-70
2022/02/13 01:01:10;;;;;;;19.27;9.43;;;4.20;93.00;;;;;;5069531;28;20654;-70
2022/02/13 01:03:36;;;;;;;17.02;9.13;;;4.20;93.00;;;;;;5067583;28;20264;-70
2022/02/13 01:06:02;;;;;;;15.02;9.10;;;4.20;93.10;;;;;;5068284;28;20179;-70
2022/02/13 01:08:27;;;;;;;21.90;9.15;;;4.30;93.20;;;;;;5069312;28;20278;-69
2022/02/13 01:10:54;;;;;;;18.88;9.20;;;4.30;93.20;;;;;;5069256;28;20182;-70
2022/02/13 01:13:20;;;;;;;20.27;9.52;;;4.30;93.20;;;;;;5050914;28;20695;-70
2022/02/13 01:15:46;;;;;;;20.17;9.55;;;4.30;93.30;;;;;;5067495;28;20213;-70
2022/02/13 01:18:13;;;;;;;19.83;9.18;;;4.20;93.30;;;;;;5068083;28;20193;-70
2022/02/13 01:20:39;;;;;;;20.80;9.10;;;4.20;93.50;;;;;;5070051;28;20175;-70
2022/02/13 01:23:05;;;;;;;21.05;9.15;;;4.20;93.60;;;;;;5069231;28;20187;-69
2022/02/13 01:25:31;;;;;;;15.77;8.93;;;4.30;93.50;;;;;;5051200;28;20197;-68
2022/02/13 01:27:57;;;;;;;16.80;9.23;;;4.20;93.80;;;;;;5067796;28;20190;-70
2022/02/13 01:30:23;;;;;;;14.90;9.00;;;4.20;93.70;;;;;;5069582;28;20668;-70
2022/02/13 01:32:48;;;;;;;15.65;9.10;;;4.30;93.80;;;;;;5051291;28;20195;-70
2022/02/13 01:35:14;;;;;;;20.30;9.02;;;4.20;93.90;;;;;;5050051;28;20232;-70
2022/02/13 01:37:40;;;;;;;20.73;9.25;;;4.20;93.90;;;;;;5068036;28;20187;-70
2022/02/13 01:40:06;;;;;;;18.63;9.82;;;4.20;94.00;;;;;;5068804;28;20229;-68
2022/02/13 01:42:32;;;;;;;20.58;9.32;;;4.20;94.10;;;;;;5067166;28;20552;-69
2022/02/13 01:44:58;;;;;;;19.35;9.30;;;4.20;94.10;;;;;;5068263;28;20179;-70
2022/02/13 01:47:24;;;;;;;16.65;9.75;;;4.10;94.20;;;;;;5068113;28;20279;-68
2022/02/13 01:49:50;;;;;;;20.15;9.85;;;4.10;94.20;;;;;;5069342;28;20228;-69
2022/02/13 01:52:16;;;;;;;17.70;9.38;;;4.10;94.30;;;;;;5068670;28;20269;-70
2022/02/13 01:54:42;;;;;;;21.75;9.57;;;4.10;94.40;;;;;;5050701;28;20218;-70
2022/02/13 01:57:10;;;;;;;22.88;9.27;;;4.00;94.20;;;;;;5067723;28;20270;-70
2022/02/13 01:59:39;;;;;;;19.80;9.45;;;4.10;94.40;;;;;;5069120;28;20906;-69
2022/02/13 02:02:05;;;;;;;19.95;9.40;;;4.00;94.30;;;;;;5050468;28;20270;-70
2022/02/13 02:04:30;;;;;;;16.95;9.25;;;4.00;94.50;;;;;;5069205;28;20699;-70
2022/02/13 02:06:56;;;;;;;21.35;9.32;;;4.00;94.40;;;;;;5069417;28;20183;-70
2022/02/13 02:09:26;;;;;;;17.85;9.38;;;4.00;94.50;;;;;;5064636;28;20726;-70
2022/02/13 02:11:52;;;;;;;20.30;8.90;;;3.90;94.50;;;;;;5068076;28;20271;-72
2022/02/13 02:14:18;;;;;;;15.85;8.75;;;3.90;94.70;;;;;;5050398;28;20287;-69
2022/02/13 02:16:44;;;;;;;18.05;9.88;;;3.90;94.70;;;;;;5050083;28;20239;-70
2022/02/13 02:19:11;;;;;;;14.45;8.65;;;3.90;94.80;;;;;;5068222;28;20217;-71
2022/02/13 02:21:40;;;;;;;24.33;9.57;;;3.90;94.90;;;;;;5067048;28;20583;-70
2022/02/13 02:24:10;;;;;;;14.57;8.43;;;3.90;95.00;;;;;;5066751;28;20253;-71
2022/02/13 02:26:37;;;;;;;18.48;9.18;;;3.90;94.90;;;;;;5069220;28;20213;-71
2022/02/13 02:29:03;;;;;;;18.27;8.65;;;3.80;95.00;;;;;;5067242;28;20216;-69
2022/02/13 02:31:29;;;;;;;15.10;8.65;;;3.80;95.10;;;;;;5068492;28;20179;-70
2022/02/13 02:33:55;;;;;;;17.25;8.45;;;3.80;95.40;;;;;;5067584;28;20210;-70
2022/02/13 02:36:20;;;;;;;16.70;8.68;;;3.80;95.40;;;;;;5069455;28;20190;-70
2022/02/13 02:38:47;;;;;;;22.75;9.65;;;3.80;95.40;;;;;;5070550;28;20218;-69
2022/02/13 02:41:13;;;;;;;14.40;9.10;;;3.80;95.30;;;;;;5054347;28;20194;-69
2022/02/13 02:43:39;;;;;;;15.07;8.85;;;3.80;95.30;;;;;;5071500;28;20197;-70
2022/02/13 02:46:05;;;;;;;14.95;8.68;;;3.80;95.30;;;;;;5072337;28;20265;-70
2022/02/13 02:48:33;;;;;;;20.10;9.15;;;3.70;95.30;;;;;;5072014;28;20183;-69
2022/02/13 02:51:00;;;;;;;17.13;8.63;;;3.70;95.30;;;;;;5054159;28;20192;-68
2022/02/13 02:53:26;;;;;;;20.70;9.30;;;3.70;95.30;;;;;;5071225;28;20182;-70
2022/02/13 02:55:51;;;;;;;16.95;7.95;;;3.70;95.30;;;;;;5072812;28;20202;-69
2022/02/13 02:58:17;;;;;;;17.10;8.43;;;3.70;95.60;;;;;;5071293;28;20228;-69
2022/02/13 03:00:42;;;;;;;18.30;9.10;;;3.60;95.50;;;;;;5072892;28;20190;-69
2022/02/13 03:03:08;;;;;;;13.30;8.60;;;3.60;95.60;;;;;;5070354;28;20631;-68
2022/02/13 03:05:33;;;;;;;17.23;8.85;;;3.60;95.60;;;;;;5072192;28;20182;-69
2022/02/13 03:07:59;;;;;;;19.10;8.70;;;3.60;95.70;;;;;;5071535;28;20643;-69
2022/02/13 03:10:25;;;;;;;15.43;8.70;;;3.60;95.80;;;;;;5054701;28;20262;-70
2022/02/13 03:12:50;;;;;;;17.15;8.80;;;3.50;95.80;;;;;;5067705;28;20210;-69
2022/02/13 03:15:16;;;;;;;18.63;8.07;;;3.50;95.80;;;;;;5071215;28;20297;-69
2022/02/13 03:17:42;;;;;;;15.27;8.80;;;3.50;95.80;;;;;;5069910;28;20529;-70
2022/02/13 03:20:09;;;;;;;17.27;8.93;;;3.50;95.80;;;;;;5053044;28;20269;-69
2022/02/13 03:22:35;;;;;;;15.60;9.15;;;3.50;96.00;;;;;;5068771;28;20186;-69
2022/02/13 03:25:02;;;;;;;17.10;8.52;;;3.40;96.00;;;;;;5054041;28;20186;-69
2022/02/13 03:27:27;;;;;;;17.40;9.30;;;3.40;96.20;;;;;;5066930;28;20646;-70
2022/02/13 03:29:53;;;;;;;18.42;8.60;;;3.40;96.10;;;;;;5072226;28;20182;-69
2022/02/13 03:32:19;;;;;;;17.08;9.02;;;3.40;96.20;;;;;;5071246;28;20214;-71
2022/02/13 03:34:44;;;;;;;19.73;9.30;;;3.40;96.10;;;;;;5071202;28;20207;-71
2022/02/13 03:37:10;;;;;;;19.10;8.75;;;3.30;96.20;;;;;;5070420;28;20179;-71
2022/02/13 03:39:36;;;;;;;17.10;9.05;;;3.30;96.20;;;;;;5052508;28;20317;-72
2022/02/13 03:42:03;;;;;;;14.68;8.40;;;3.40;96.20;;;;;;5053958;28;20631;-72
2022/02/13 03:44:29;;;;;;;17.67;8.98;;;3.30;96.20;;;;;;5070840;28;20280;-70
2022/02/13 03:46:55;;;;;;;17.60;8.55;;;3.30;96.20;;;;;;5071114;28;20650;-72
2022/02/13 03:49:20;;;;;;;16.30;8.43;;;3.40;96.30;;;;;;5068618;28;20197;-69
2022/02/13 03:51:46;;;;;;;16.20;9.00;;;3.30;96.40;;;;;;5070735;28;20210;-69
2022/02/13 03:54:11;;;;;;;14.95;9.00;;;3.30;96.40;;;;;;5069858;28;20210;-68
2022/02/13 03:56:37;;;;;;;13.40;7.80;;;3.30;96.50;;;;;;5070907;28;20867;-69
2022/02/13 03:59:03;;;;;;;17.77;8.85;;;3.30;96.60;;;;;;5069167;28;20320;-69
2022/02/13 04:01:29;;;;;;;19.80;9.60;;;3.30;96.50;;;;;;5036290;28;20725;-69
2022/02/13 04:03:54;;;;;;;14.68;8.57;;;3.20;96.90;;;;;;5070422;28;20194;-71
2022/02/13 04:06:20;;;;;;;17.27;8.27;;;3.20;96.60;;;;;;5070842;28;20202;-69
2022/02/13 04:08:46;;;;;;;19.50;8.40;;;3.20;96.50;;;;;;5069639;28;20654;-70
2022/02/13 04:11:11;;;;;;;15.23;8.90;;;3.20;96.60;;;;;;5071252;28;20194;-69
2022/02/13 04:13:37;;;;;;;14.10;8.15;;;3.20;96.60;;;;;;5070341;28;20642;-69
2022/02/13 04:16:03;;;;;;;16.88;8.57;;;3.20;96.60;;;;;;5070666;28;20233;-68
2022/02/13 04:18:30;;;;;;;18.45;8.80;;;3.20;96.60;;;;;;5070273;28;20181;-70
2022/02/13 04:20:55;;;;;;;20.80;9.13;;;3.20;96.70;;;;;;5053119;28;20186;-70
2022/02/13 04:23:21;;;;;;;18.23;8.85;;;3.20;96.80;;;;;;5068954;28;20224;-69
2022/02/13 04:25:47;;;;;;;16.75;9.20;;;3.20;96.70;;;;;;5071108;28;20178;-70
2022/02/13 04:28:12;;;;;;;17.30;9.07;;;3.20;96.90;;;;;;5069416;28;20190;-70
2022/02/13 04:30:38;;;;;;;15.63;8.50;;;3.20;96.90;;;;;;5070090;28;20195;-70
2022/02/13 04:33:03;;;;;;;16.70;9.20;;;3.20;97.00;;;;;;5070087;28;20190;-69
2022/02/13 04:35:29;;;;;;;18.15;8.90;;;3.10;97.00;;;;;;5070672;28;20284;-68
2022/02/13 04:37:56;;;;;;;15.30;9.13;;;3.20;97.20;;;;;;5066295;28;20186;-68
2022/02/13 04:40:23;;;;;;;17.92;9.15;;;3.20;97.20;;;;;;5069060;28;20239;-70
2022/02/13 04:42:49;;;;;;;19.95;9.82;;;3.20;97.30;;;;;;5069819;28;20194;-71
2022/02/13 04:45:14;;;;;;;21.73;9.50;;;3.30;97.40;;;;;;5068008;28;20198;-69
2022/02/13 04:47:40;;;;;;;15.07;8.55;;;3.30;97.40;;;;;;5050814;28;20560;-68
2022/02/13 04:50:07;;;;;;;12.43;8.20;;;3.30;97.40;;;;;;5070246;28;20178;-69
2022/02/13 04:52:33;;;;;;;16.63;8.95;;;3.30;97.50;;;;;;5068234;28;20451;-70
2022/02/13 04:54:59;;;;;;;13.55;8.50;;;3.30;97.50;;;;;;5069550;28;20230;-69
2022/02/13 04:57:25;;;;;;;20.42;9.25;;;3.30;97.50;;;;;;5067540;28;20235;-69
2022/02/13 04:59:51;;;;;;;13.23;7.45;;;3.30;97.50;;;;;;5068608;28;20265;-68
2022/02/13 05:02:16;;;;;;;14.85;8.25;;;3.30;97.60;;;;;;5067770;28;20270;-68
2022/02/13 05:04:42;;;;;;;15.48;8.10;;;3.30;97.60;;;;;;5067114;28;20178;-70
2022/02/13 05:07:07;;;;;;;16.63;8.90;;;3.30;97.60;;;;;;5068535;28;20186;-70
2022/02/13 05:09:33;;;;;;;14.43;8.40;;;3.30;97.60;;;;;;5068938;28;20201;-71
2022/02/13 05:11:59;;;;;;;15.85;8.82;;;3.20;97.60;;;;;;5069622;28;20192;-69
2022/02/13 05:14:25;;;;;;;13.75;8.90;;;3.30;97.70;;;;;;5048208;28;20317;-71
2022/02/13 05:16:51;;;;;;;17.08;8.95;;;3.30;97.70;;;;;;5065400;28;20182;-69
2022/02/13 05:19:17;;;;;;;18.85;8.68;;;3.30;97.70;;;;;;5065648;28;20182;-70
2022/02/13 05:21:43;;;;;;;16.73;8.73;;;3.30;97.70;;;;;;5067606;28;20188;-68
2022/02/13 05:24:09;;;;;;;18.63;9.35;;;3.30;97.80;;;;;;5049071;28;20198;-69
2022/02/13 05:26:35;;;;;;;17.30;9.18;;;3.30;97.80;;;;;;5063295;28;20197;-70
2022/02/13 05:29:02;;;;;;;15.80;8.35;;;3.30;97.80;;;;;;5066479;28;20594;-69
2022/02/13 05:31:30;;;;;;;18.60;9.13;;;3.30;97.90;;;;;;5066105;28;20194;-68
2022/02/13 05:34:01;;;;;;;15.38;8.55;;;3.30;97.90;;;;;;5065693;28;20261;-70
2022/02/13 05:36:27;;;;;;;15.55;8.82;;;3.40;98.00;;;;;;5067607;28;20183;-69
2022/02/13 05:38:53;;;;;;;15.07;8.73;;;3.40;98.30;;;;;;5046364;28;20663;-69
2022/02/13 05:41:19;;;;;;;19.42;9.98;;;3.40;98.00;;;;;;5047640;28;20213;-68
2022/02/13 05:43:45;;;;;;;14.85;8.90;;;3.40;98.00;;;;;;5046784;28;20559;-70
2022/02/13 05:46:10;;;;;;;15.18;8.55;;;3.40;98.00;;;;;;5044443;28;20981;-70
2022/02/13 05:48:37;;;;;;;20.00;9.25;;;3.40;98.00;;;;;;5048292;28;20211;-69
2022/02/13 05:51:03;;;;;;;15.07;8.88;;;3.50;98.10;;;;;;5047007;28;20191;-69
2022/02/13 05:53:29;;;;;;;17.60;8.52;;;3.50;98.20;;;;;;5046501;28;20179;-69
2022/02/13 05:55:55;;;;;;;16.10;9.05;;;3.50;98.20;;;;;;5048180;28;20218;-69
2022/02/13 05:58:20;;;;;;;13.73;8.63;;;3.50;98.20;;;;;;5046235;28;20191;-69
2022/02/13 06:00:46;;;;;;;17.27;9.48;;;3.50;98.20;;;;;;5047661;28;20278;-70
2022/02/13 06:03:11;;;;;;;15.65;9.02;;;3.50;98.20;;;;;;5046365;28;20201;-70
2022/02/13 06:05:38;;;;;;;14.40;8.95;;;3.50;98.30;;;;;;5048683;28;20557;-69
2022/02/13 06:08:03;;;;;;;16.17;9.30;;;3.50;98.30;;;;;;5045893;28;20663;-70
2022/02/13 06:10:29;;;;;;;15.85;9.15;;;3.60;98.30;;;;;;5046257;28;20183;-69
2022/02/13 06:12:55;;;;;;;17.85;9.43;;;3.60;98.20;;;;;;5046076;28;20187;-69
2022/02/13 06:15:21;;;;;;;19.15;9.10;;;3.60;98.30;;;;;;5046338;28;20511;-71
2022/02/13 06:17:46;;;;;;;17.48;9.07;;;3.60;98.30;;;;;;5045606;28;20194;-71
2022/02/13 06:20:12;;;;;;;15.57;8.35;;;3.60;98.30;;;;;;5047452;28;20629;-70
2022/02/13 06:22:39;;;;;;;15.25;9.18;;;3.60;98.40;;;;;;5046332;28;20179;-70
2022/02/13 06:25:05;;;;;;;19.98;9.27;;;3.70;98.40;;;;;;5047566;28;20195;-71
2022/02/13 06:27:31;;;;;;;15.43;9.00;;;3.70;98.40;;;;;;5046220;28;20580;-71
2022/02/13 06:29:57;;;;;;;20.20;8.80;;;3.70;98.30;;;;;;5046650;28;20194;-71
2022/02/13 06:32:22;;;;;;;16.00;9.27;;;3.70;98.40;;;;;;5045787;28;20197;-71
2022/02/13 06:34:48;;;;;;;15.95;8.88;;;3.70;98.40;;;;;;5046341;28;20225;-70
2022/02/13 06:37:13;;;;;;;17.08;8.68;;;3.70;98.40;;;;;;5045301;28;20751;-71
2022/02/13 06:39:39;;;;;;;16.30;9.25;;;3.70;98.70;;;;;;5062165;28;20220;-70
2022/02/13 06:42:05;;;;;;;15.00;8.80;;;3.70;98.40;;;;;;5066046;28;20179;-71
2022/02/13 06:44:31;;;;;;;18.92;8.95;;;3.70;98.40;;;;;;5067693;28;20273;-72
2022/02/13 06:46:56;;;;;;;20.73;8.93;;;3.70;98.40;;;;;;5067263;28;20796;-70
2022/02/13 06:49:22;;;;;;;14.50;8.43;;;3.70;98.50;;;;;;5047456;28;20202;-70
2022/02/13 06:51:47;;;;;;;14.80;9.05;;;3.70;98.40;;;;;;5065872;28;20633;-71
2022/02/13 06:54:13;;;;;;;17.85;8.90;;;3.70;98.50;;;;;;5061114;28;20687;-71
2022/02/13 06:56:39;;;;;;;14.20;9.00;;;3.70;98.50;;;;;;5057794;28;20175;-70
2022/02/13 06:59:04;;;;;;;16.77;9.55;;;3.80;98.50;;;;;;5062771;28;20193;-71
2022/02/13 07:01:30;;;;;;;15.65;8.65;;;3.80;98.50;;;;;;5065475;28;20185;-70
2022/02/13 07:03:56;;;;;;;17.75;8.80;;;3.80;98.50;;;;;;5060532;28;20189;-71
2022/02/13 07:06:21;;;;;;;18.05;9.10;;;3.80;98.50;;;;;;5065949;28;20201;-69
2022/02/13 07:08:47;;;;;;;17.35;9.38;;;3.80;98.60;;;;;;5063742;28;20187;-71
2022/02/13 07:11:13;;;;;;;19.20;9.15;;;3.80;98.50;;;;;;5048947;28;20622;-71
2022/02/13 07:13:38;;;;;;;16.02;9.15;;;3.80;98.60;;;;;;5067054;28;20179;-71
2022/02/13 07:16:05;;;;;;;16.40;9.32;;;3.80;98.60;;;;;;5066932;28;20181;-72
2022/02/13 07:18:31;;;;;;;15.98;9.13;;;3.90;98.60;;;;;;5048847;28;20647;-71
2022/02/13 07:20:56;;;;;;;16.70;9.18;;;3.90;98.70;;;;;;5067650;28;20182;-70
2022/02/13 07:23:22;;;;;;;20.77;8.85;;;3.90;98.70;;;;;;5069514;28;20198;-70
2022/02/13 07:25:48;;;;;;;20.52;8.90;;;3.90;98.70;;;;;;5069953;28;20198;-70
2022/02/13 07:30:59;;;;;;;19.55;9.13;;;3.90;98.60;;;;;;5052603;28;20197;-71
2022/02/13 07:33:24;;;;;;;18.40;9.13;;;3.90;98.60;;;;;;5070893;28;20269;-70
2022/02/13 07:35:50;;;;;;;15.23;8.70;;;3.90;98.70;;;;;;5052962;28;20292;-71
2022/02/13 07:38:16;;;;;;;20.30;9.10;;;4.00;98.80;;;;;;5070468;28;20247;-73
2022/02/13 07:40:41;;;;;;;17.17;8.85;;;4.00;99.00;;;;;;5069657;28;20191;-70
2022/02/13 07:43:07;;;;;;;15.68;8.77;;;4.00;98.70;;;;;;5052711;28;20210;-71
2022/02/13 07:45:33;;;;;;;16.58;9.30;;;4.00;98.70;;;;;;5071054;28;20198;-70
2022/02/13 07:47:58;;;;;;;14.02;8.75;;;4.00;98.70;;;;;;5065090;28;20193;-71
2022/02/13 07:50:24;;;;;;;16.05;8.70;;;4.00;98.70;;;;;;5066552;28;20265;-71
2022/02/13 07:52:50;;;;;;;16.88;8.70;;;4.00;98.70;;;;;;5067171;28;20191;-71
2022/02/13 07:55:16;;;;;;;15.90;8.55;;;4.00;98.70;;;;;;5069674;28;20210;-71
2022/02/13 07:57:44;;;;;;;14.13;8.48;;;4.00;98.70;;;;;;5070632;28;20182;-70
2022/02/13 08:00:11;;;;;;;14.45;8.45;;;4.00;98.80;;;;;;5068063;28;20237;-70
2022/02/13 08:02:40;;;;;;;18.67;8.93;;;4.00;98.70;;;;;;5069296;28;20611;-70
2022/02/13 08:05:06;;;;;;;13.80;8.93;;;4.10;98.70;;;;;;5070206;28;20635;-71
2022/02/13 08:07:32;;;;;;;17.00;9.13;;;4.10;98.70;;;;;;5069306;28;20210;-71
2022/02/13 08:09:57;;;;;;;15.80;9.05;;;4.20;98.70;;;;;;5070577;28;20183;-72
2022/02/13 08:12:23;;;;;;;15.57;8.90;;;4.20;98.80;;;;;;5052247;28;20244;-71
2022/02/13 08:14:49;;;;;;;17.20;9.23;;;4.20;98.80;;;;;;5068226;28;20209;-73
2022/02/13 08:17:15;;;;;;;16.30;8.73;;;4.30;98.80;;;;;;5069415;28;20218;-69
2022/02/13 08:19:40;;;;;;;21.08;9.05;;;4.30;98.80;;;;;;5070024;28;20217;-70
2022/02/13 08:22:07;;;;;;;20.10;8.43;;;4.40;98.80;;;;;;5069107;28;20190;-69
2022/02/13 08:24:34;;;;;;;15.88;8.85;;;4.40;98.80;;;;;;5068274;28;20555;-70
2022/02/13 08:27:00;;;;;;;13.13;9.13;;;4.50;98.80;;;;;;5065659;28;20214;-70
2022/02/13 08:29:26;;;;;;;14.35;8.52;;;4.50;98.70;;;;;;5067643;28;20186;-69
2022/02/13 08:31:52;;;;;;;14.85;8.27;;;4.50;98.70;;;;;;5069651;28;20178;-70
2022/02/13 08:34:18;;;;;;;19.30;9.27;;;4.50;98.70;;;;;;5051063;28;20206;-70
2022/02/13 08:36:44;;;;;;;17.80;8.68;;;4.60;98.70;;;;;;5067259;28;20617;-70
2022/02/13 08:39:09;;;;;;;16.85;8.07;;;4.60;98.70;;;;;;5067819;28;20214;-70
2022/02/13 08:41:35;;;;;;;20.63;8.80;;;4.60;98.60;;;;;;5068598;28;20194;-70
2022/02/13 08:44:06;;;;;;;14.77;8.57;;;4.60;98.60;;;;;;5067328;28;20190;-69
2022/02/13 08:46:33;;;;;;;19.58;8.68;;;4.60;98.60;;;;;;5069509;28;20650;-69
2022/02/13 08:49:00;;;;;;;14.75;8.52;;;4.70;98.60;;;;;;5067432;28;20174;-68
2022/02/13 08:51:26;;;;;;;15.10;9.18;;;4.60;98.50;;;;;;5067063;28;20220;-68
2022/02/13 08:53:52;;;;;;;15.32;8.63;;;4.70;98.50;;;;;;5068232;28;20182;-68
2022/02/13 08:56:18;;;;;;;18.00;8.45;;;4.70;98.50;;;;;;5069263;28;20251;-70
2022/02/13 08:58:43;;;;;;;15.07;8.57;;;4.70;98.50;;;;;;5064120;28;20198;-69
2022/02/13 09:01:09;;;;;;;21.17;8.75;;;4.70;98.50;;;;;;5066441;28;20183;-69
2022/02/13 09:03:34;;;;;;;13.77;8.52;;;4.80;98.50;;;;;;5065717;28;20730;-69
2022/02/13 09:06:00;;;;;;;11.70;7.68;;;4.80;98.50;;;;;;5062970;28;20226;-69
2022/02/13 09:08:26;;;;;;;16.73;7.82;;;4.80;98.40;;;;;;5061618;28;20186;-69
2022/02/13 09:10:52;;;;;;;15.43;8.80;;;4.90;98.40;;;;;;5062940;28;20205;-69
2022/02/13 09:13:18;;;;;;;12.90;8.18;;;4.90;98.40;;;;;;5046492;28;20183;-69
2022/02/13 09:15:43;;;;;;;13.00;8.05;;;4.90;98.40;;;;;;5063934;28;20576;-69
2022/02/13 09:18:10;;;;;;;12.52;8.00;;;5.00;98.40;;;;;;5063908;28;20225;-69
2022/02/13 09:20:38;;;;;;;14.82;8.40;;;5.10;98.40;;;;;;5064914;28;20228;-69
2022/02/13 09:23:03;;;;;;;13.98;7.75;;;5.20;98.30;;;;;;5044953;28;20581;-69
2022/02/13 09:25:29;;;;;;;17.27;8.57;;;5.20;98.20;;;;;;5063395;28;20221;-69
2022/02/13 09:27:55;;;;;;;12.90;8.65;;;5.20;98.20;;;;;;5064014;28;20187;-69
2022/02/13 09:30:20;;;;;;;15.80;8.50;;;5.30;98.20;;;;;;5063766;28;20186;-69
2022/02/13 09:32:46;;;;;;;13.23;7.88;;;5.30;98.10;;;;;;5062332;28;20269;-69
2022/02/13 09:35:11;;;;;;;14.40;8.77;;;5.30;98.10;;;;;;5064105;28;20221;-69
2022/02/13 09:37:37;;;;;;;17.70;8.40;;;5.30;98.00;;;;;;5063353;28;20213;-68
2022/02/13 09:40:04;;;;;;;14.48;8.02;;;5.30;98.00;;;;;;5065984;28;20244;-68
2022/02/13 09:42:31;;;;;;;14.95;8.25;;;5.40;98.00;;;;;;5065586;28;20193;-70
2022/02/13 09:44:58;;;;;;;16.88;8.38;;;5.40;97.90;;;;;;5066242;28;20236;-69
2022/02/13 09:47:26;;;;;;;17.50;8.52;;;5.40;97.90;;;;;;5046786;28;20251;-69
2022/02/13 09:49:52;;;;;;;14.13;8.50;;;5.50;98.00;;;;;;5065325;28;20194;-69
2022/02/13 09:52:17;;;;;;;15.02;7.95;;;5.50;98.00;;;;;;5068222;28;20186;-69
2022/02/13 09:54:43;;;;;;;16.77;8.55;;;5.60;98.00;;;;;;5067734;28;20229;-69
2022/02/13 09:59:59;;;;;;;15.43;8.30;;;6.50;96.90;;;;;;5067058;28;20186;-69
2022/02/13 10:02:39;;;;;;;13.23;8.75;;;6.70;97.00;;;;;;5063298;28;20401;-71
2022/02/13 10:05:08;;;;;;;12.37;8.00;;;7.80;95.20;;;;;;5044113;28;20835;-69
2022/02/13 10:07:38;;;;;;;13.17;8.40;;;9.10;92.30;;;;;;5054615;28;20409;-69
2022/02/13 10:10:06;;;;;;;13.07;7.80;;;10.30;88.40;;;;;;5056396;28;20516;-70
2022/02/13 10:12:42;;;;;;;12.85;7.63;;;11.00;82.50;;;;;;5056701;28;20442;-70
2022/02/13 10:15:27;;;;;;;12.07;7.57;;;11.50;79.40;;;;;;5057655;28;20437;-69
2022/02/13 10:18:04;;;;;;;13.32;7.68;;;12.10;76.30;;;;;;5058635;28;20490;-70
2022/02/13 10:20:34;;;;;;;11.97;7.57;;;12.60;73.30;;;;;;5061557;28;20408;-70
2022/02/13 10:23:11;;;;;;;10.35;6.97;;;12.90;69.60;;;;;;5065833;28;20407;-70
2022/02/13 10:25:37;;;;;;;11.18;7.43;;;13.00;69.20;;;;;;5066943;28;20392;-71
2022/02/13 10:28:14;;;;;;;12.82;7.50;;;13.30;68.00;;;;;;5067455;28;20514;-70
2022/02/13 10:30:42;;;;;;;14.57;7.22;;;13.80;65.50;;;;;;5066862;28;20408;-71
2022/02/13 10:33:20;;;;;;;13.27;7.35;;;14.10;62.60;;;;;;5062853;28;20536;-69
2022/02/13 10:36:07;;;;;;;11.57;7.25;;;14.00;61.80;;;;;;5060751;28;20411;-70
2022/02/13 10:38:38;;;;;;;14.77;7.18;;;13.80;61.70;;;;;;5057214;28;20947;-71
2022/02/13 10:41:24;;;;;;;10.75;7.40;;;13.40;63.30;;;;;;5054628;28;22372;-71
2022/02/13 10:44:04;;;;;;;13.33;7.47;;;12.90;65.30;;;;;;5051859;28;20407;-69
2022/02/13 10:46:31;;;;;;;13.43;7.60;;;12.40;68.00;;;;;;5043967;28;20407;-70
2022/02/13 10:48:57;;;;;;;13.40;7.80;;;12.00;70.40;;;;;;5053188;28;20458;-70
2022/02/13 10:51:23;;;;;;;13.80;7.60;;;11.90;71.20;;;;;;5054738;28;20413;-69
2022/02/13 10:53:51;;;;;;;13.02;7.43;;;11.90;71.50;;;;;;5053624;28;20423;-68
2022/02/13 10:56:18;;;;;;;15.60;8.00;;;11.90;71.70;;;;;;5060197;28;20476;-70
2022/02/13 10:58:44;;;;;;;11.57;7.25;;;12.10;71.80;;;;;;5069666;28;20871;-69
2022/02/13 11:01:11;;;;;;;11.47;7.57;;;12.30;70.30;;;;;;5053519;28;20442;-69
2022/02/13 11:03:37;;;;;;;11.90;7.70;;;12.70;68.60;;;;;;5070360;28;20803;-69
2022/02/13 11:06:06;;;;;;;11.68;7.10;;;13.30;66.00;;;;;;5071402;28;20395;-68
2022/02/13 11:08:39;;;;;;;13.45;6.78;;;13.60;64.70;;;;;;5069508;28;20423;-69
2022/02/13 11:11:05;;;;;;;10.98;7.35;;;13.90;63.30;;;;;;5070645;28;20411;-69
2022/02/13 11:13:32;;;;;;;10.97;6.70;;;14.10;62.70;;;;;;5069216;28;20420;-68
2022/02/13 11:15:59;;;;;;;11.18;6.78;;;14.30;61.70;;;;;;5033834;28;20516;-68
2022/02/13 11:18:31;;;;;;;10.30;6.80;;;14.50;60.80;;;;;;5070152;28;20399;-69
2022/02/13 11:20:58;;;;;;;11.03;7.07;;;14.40;58.80;;;;;;5070233;28;20431;-69
2022/02/13 11:23:28;;;;;;;9.60;6.60;;;14.40;59.70;;;;;;5070048;28;20411;-70
2022/02/13 11:25:57;;;;;;;10.18;6.72;;;14.30;59.50;;;;;;5071238;28;20442;-69
2022/02/13 11:28:27;;;;;;;11.50;6.40;;;14.30;59.80;;;;;;5051519;28;20400;-70
2022/02/13 11:30:55;;;;;;;9.10;6.15;;;14.30;58.90;;;;;;5070460;28;20558;-71
2022/02/13 11:33:24;;;;;;;10.95;6.60;;;14.40;59.40;;;;;;5068811;28;20415;-69
2022/02/13 11:35:59;;;;;;;9.88;6.30;;;14.60;58.10;;;;;;5070506;28;20513;-70
2022/02/13 11:38:37;;;;;;;10.25;6.25;;;14.40;57.70;;;;;;5069373;28;20435;-69
2022/02/13 11:41:04;;;;;;;10.77;6.28;;;14.00;58.00;;;;;;5053143;28;21278;-69
2022/02/13 11:43:44;;;;;;;10.00;6.40;;;13.70;58.60;;;;;;5069722;28;20862;-68
2022/02/13 11:46:14;;;;;;;9.73;6.20;;;13.30;61.00;;;;;;5070236;28;20911;-68
2022/02/13 11:48:43;;;;;;;11.88;6.43;;;13.10;61.90;;;;;;5067169;28;20811;-67
2022/02/13 11:51:10;;;;;;;11.20;6.43;;;13.00;61.90;;;;;;5070044;28;20927;-67
2022/02/13 11:53:45;;;;;;;9.88;6.35;;;12.80;63.10;;;;;;5069254;28;20465;-67
2022/02/13 11:56:28;;;;;;;9.98;6.88;;;12.60;63.80;;;;;;5068617;28;20416;-69
2022/02/13 11:58:55;;;;;;;13.18;7.15;;;12.30;64.90;;;;;;5066465;28;20439;-68
2022/02/13 12:01:36;;;;;;;10.00;6.32;;;12.10;65.70;;;;;;5068093;28;20797;-67
2022/02/13 12:04:03;;;;;;;11.88;6.57;;;11.90;66.50;;;;;;5049291;28;20411;-68
2022/02/13 12:06:30;;;;;;;11.75;6.68;;;11.70;68.80;;;;;;5069354;28;20407;-67
2022/02/13 12:09:04;;;;;;;11.97;6.77;;;11.60;70.30;;;;;;5049161;28;20395;-68
2022/02/13 12:11:31;;;;;;;10.52;6.75;;;11.60;70.20;;;;;;5070097;28;20403;-68
2022/02/13 12:13:58;;;;;;;11.53;6.47;;;11.50;69.20;;;;;;5068798;28;20415;-68
2022/02/13 12:16:26;;;;;;;12.15;6.15;;;11.50;70.10;;;;;;5069952;28;20457;-68
2022/02/13 12:18:52;;;;;;;10.48;6.30;;;11.40;69.70;;;;;;5051608;28;20902;-67
2022/02/13 12:21:25;;;;;;;11.75;6.88;;;11.30;71.60;;;;;;5068167;28;20536;-68
2022/02/13 12:24:05;;;;;;;10.20;6.20;;;11.20;70.80;;;;;;5066043;28;20420;-68
2022/02/13 12:26:31;;;;;;;11.15;6.40;;;11.10;71.30;;;;;;5068014;28;20899;-68
2022/02/13 12:29:00;;;;;;;10.47;5.90;;;11.00;73.50;;;;;;5066157;28;20420;-69
2022/02/13 12:31:26;;;;;;;9.02;5.88;;;11.00;72.70;;;;;;5068203;28;20926;-70
2022/02/13 12:33:53;;;;;;;11.20;6.00;;;11.00;73.40;;;;;;5049082;28;20407;-68
2022/02/13 12:36:28;;;;;;;10.82;5.97;;;11.00;73.80;;;;;;5068247;28;20829;-68
2022/02/13 12:38:55;;;;;;;9.90;6.13;;;10.90;74.00;;;;;;5067975;28;20412;-67
2022/02/13 12:41:22;;;;;;;10.57;6.20;;;10.90;74.60;;;;;;5069852;28;20403;-69
2022/02/13 12:43:50;;;;;;;9.60;5.90;;;11.00;75.20;;;;;;5068178;28;20763;-68
2022/02/13 12:46:19;;;;;;;8.55;5.40;;;11.00;75.50;;;;;;5069766;28;20525;-68
2022/02/13 12:48:46;;;;;;;10.05;6.03;;;11.10;76.30;;;;;;5066679;28;20415;-68